sensor_id;sensor_type;location;lat;lon;timestamp;P1;durP1;ratioP1;P2;durP2;ratioP2
19593;SDS011;9944;48.240;16.478;2023-03-31T00:03:33;1.45;;;1.23;;
19593;SDS011;9944;48.240;16.478;2023-03-31T00:07:39;1.70;;;1.10;;
19593;SDS011;9944;48.240;16.478;2023-03-31T00:11:42;1.80;;;1.20;;
19593;SDS011;9944;48.240;16.478;2023-03-31T00:15:45;1.13;;;1.00;;
19593;SDS011;9944;48.240;16.478;2023-03-31T00:19:50;1.67;;;1.00;;
19593;SDS011;9944;48.240;16.478;2023-03-31T00:23:54;1.65;;;1.00;;
19593;SDS011;9944;48.240;16.478;2023-03-31T00:27:59;1.73;;;1.10;;
19593;SDS011;9944;48.240;16.478;2023-03-31T00:32:02;1.15;;;1.00;;
19593;SDS011;9944;48.240;16.478;2023-03-31T00:36:07;2.03;;;1.00;;
19593;SDS011;9944;48.240;16.478;2023-03-31T00:40:10;1.02;;;0.93;;
19593;SDS011;9944;48.240;16.478;2023-03-31T00:44:14;3.00;;;1.27;;
19593;SDS011;9944;48.240;16.478;2023-03-31T00:48:23;1.42;;;0.80;;
19593;SDS011;9944;48.240;16.478;2023-03-31T00:52:31;1.67;;;0.75;;
19593;SDS011;9944;48.240;16.478;2023-03-31T00:56:39;1.10;;;1.00;;
19593;SDS011;9944;48.240;16.478;2023-03-31T01:00:45;1.05;;;0.60;;
19593;SDS011;9944;48.240;16.478;2023-03-31T01:04:50;1.15;;;0.75;;
19593;SDS011;9944;48.240;16.478;2023-03-31T01:08:59;1.40;;;1.02;;
19593;SDS011;9944;48.240;16.478;2023-03-31T01:13:07;1.77;;;0.93;;
19593;SDS011;9944;48.240;16.478;2023-03-31T01:17:12;0.82;;;0.70;;
19593;SDS011;9944;48.240;16.478;2023-03-31T01:21:29;1.83;;;1.05;;
19593;SDS011;9944;48.240;16.478;2023-03-31T01:35:45;0.98;;;0.70;;
19593;SDS011;9944;48.240;16.478;2023-03-31T01:40:04;2.08;;;0.98;;
19593;SDS011;9944;48.240;16.478;2023-03-31T01:44:17;2.72;;;1.30;;
19593;SDS011;9944;48.240;16.478;2023-03-31T01:48:34;2.65;;;1.00;;
19593;SDS011;9944;48.240;16.478;2023-03-31T01:52:45;1.58;;;1.00;;
19593;SDS011;9944;48.240;16.478;2023-03-31T01:56:56;3.08;;;1.27;;
19593;SDS011;9944;48.240;16.478;2023-03-31T02:01:05;2.05;;;1.42;;
19593;SDS011;9944;48.240;16.478;2023-03-31T02:05:17;1.80;;;1.30;;
19593;SDS011;9944;48.240;16.478;2023-03-31T02:09:26;2.35;;;1.35;;
19593;SDS011;9944;48.240;16.478;2023-03-31T02:13:34;1.42;;;1.30;;
19593;SDS011;9944;48.240;16.478;2023-03-31T02:17:39;2.58;;;1.42;;
19593;SDS011;9944;48.240;16.478;2023-03-31T02:21:47;2.25;;;1.75;;
19593;SDS011;9944;48.240;16.478;2023-03-31T02:25:52;1.90;;;1.40;;
19593;SDS011;9944;48.240;16.478;2023-03-31T02:30:01;1.83;;;1.55;;
19593;SDS011;9944;48.240;16.478;2023-03-31T02:34:05;3.45;;;1.63;;
19593;SDS011;9944;48.240;16.478;2023-03-31T02:38:09;4.50;;;1.70;;
19593;SDS011;9944;48.240;16.478;2023-03-31T02:42:12;1.63;;;1.30;;
19593;SDS011;9944;48.240;16.478;2023-03-31T02:46:17;2.95;;;1.55;;
19593;SDS011;9944;48.240;16.478;2023-03-31T02:50:20;2.45;;;1.67;;
19593;SDS011;9944;48.240;16.478;2023-03-31T02:54:39;2.67;;;1.50;;
19593;SDS011;9944;48.240;16.478;2023-03-31T02:58:54;2.65;;;1.77;;
19593;SDS011;9944;48.240;16.478;2023-03-31T03:03:15;3.58;;;1.60;;
19593;SDS011;9944;48.240;16.478;2023-03-31T03:07:29;1.83;;;1.45;;
19593;SDS011;9944;48.240;16.478;2023-03-31T03:11:42;1.90;;;1.40;;
19593;SDS011;9944;48.240;16.478;2023-03-31T03:15:54;3.65;;;1.70;;
19593;SDS011;9944;48.240;16.478;2023-03-31T03:20:06;2.28;;;1.70;;
19593;SDS011;9944;48.240;16.478;2023-03-31T03:24:11;3.65;;;1.85;;
19593;SDS011;9944;48.240;16.478;2023-03-31T03:28:14;3.83;;;1.77;;
19593;SDS011;9944;48.240;16.478;2023-03-31T03:32:17;1.85;;;1.30;;
19593;SDS011;9944;48.240;16.478;2023-03-31T03:36:22;1.77;;;1.33;;
19593;SDS011;9944;48.240;16.478;2023-03-31T03:40:25;1.70;;;1.40;;
19593;SDS011;9944;48.240;16.478;2023-03-31T03:44:28;1.80;;;1.50;;
19593;SDS011;9944;48.240;16.478;2023-03-31T03:48:32;2.05;;;1.70;;
19593;SDS011;9944;48.240;16.478;2023-03-31T03:52:36;2.78;;;1.50;;
19593;SDS011;9944;48.240;16.478;2023-03-31T03:56:39;2.03;;;1.70;;
19593;SDS011;9944;48.240;16.478;2023-03-31T04:00:43;4.25;;;2.00;;
19593;SDS011;9944;48.240;16.478;2023-03-31T04:04:46;1.67;;;1.45;;
19593;SDS011;9944;48.240;16.478;2023-03-31T04:08:51;3.35;;;1.95;;
19593;SDS011;9944;48.240;16.478;2023-03-31T04:12:54;3.15;;;1.83;;
19593;SDS011;9944;48.240;16.478;2023-03-31T04:16:57;2.28;;;1.67;;
19593;SDS011;9944;48.240;16.478;2023-03-31T04:21:00;2.75;;;1.90;;
19593;SDS011;9944;48.240;16.478;2023-03-31T04:25:07;2.00;;;1.80;;
19593;SDS011;9944;48.240;16.478;2023-03-31T04:29:15;4.95;;;2.67;;
19593;SDS011;9944;48.240;16.478;2023-03-31T04:33:21;3.60;;;2.63;;
19593;SDS011;9944;48.240;16.478;2023-03-31T04:37:24;5.10;;;3.60;;
19593;SDS011;9944;48.240;16.478;2023-03-31T04:41:30;4.63;;;3.28;;
19593;SDS011;9944;48.240;16.478;2023-03-31T04:45:33;5.72;;;3.20;;
19593;SDS011;9944;48.240;16.478;2023-03-31T04:49:38;8.20;;;3.67;;
19593;SDS011;9944;48.240;16.478;2023-03-31T04:53:46;4.15;;;3.05;;
19593;SDS011;9944;48.240;16.478;2023-03-31T04:57:50;4.45;;;2.65;;
19593;SDS011;9944;48.240;16.478;2023-03-31T05:01:54;4.95;;;2.95;;
19593;SDS011;9944;48.240;16.478;2023-03-31T05:05:57;3.67;;;2.25;;
19593;SDS011;9944;48.240;16.478;2023-03-31T05:10:00;3.85;;;2.50;;
19593;SDS011;9944;48.240;16.478;2023-03-31T05:14:04;3.88;;;2.38;;
19593;SDS011;9944;48.240;16.478;2023-03-31T05:18:08;4.93;;;2.50;;
19593;SDS011;9944;48.240;16.478;2023-03-31T05:22:11;4.07;;;2.78;;
19593;SDS011;9944;48.240;16.478;2023-03-31T05:26:14;6.22;;;3.17;;
19593;SDS011;9944;48.240;16.478;2023-03-31T05:30:19;4.95;;;2.40;;
19593;SDS011;9944;48.240;16.478;2023-03-31T05:34:22;4.07;;;2.70;;
19593;SDS011;9944;48.240;16.478;2023-03-31T05:38:25;7.22;;;3.15;;
19593;SDS011;9944;48.240;16.478;2023-03-31T05:42:31;4.97;;;2.95;;
19593;SDS011;9944;48.240;16.478;2023-03-31T05:46:36;4.75;;;3.00;;
19593;SDS011;9944;48.240;16.478;2023-03-31T05:50:39;8.23;;;3.25;;
19593;SDS011;9944;48.240;16.478;2023-03-31T05:54:43;6.32;;;2.90;;
19593;SDS011;9944;48.240;16.478;2023-03-31T05:58:46;10.95;;;3.78;;
19593;SDS011;9944;48.240;16.478;2023-03-31T06:02:51;7.97;;;3.53;;
19593;SDS011;9944;48.240;16.478;2023-03-31T06:06:54;6.00;;;2.90;;
19593;SDS011;9944;48.240;16.478;2023-03-31T06:10:58;7.05;;;3.10;;
19593;SDS011;9944;48.240;16.478;2023-03-31T06:15:02;5.70;;;3.17;;
19593;SDS011;9944;48.240;16.478;2023-03-31T06:19:06;13.00;;;3.20;;
19593;SDS011;9944;48.240;16.478;2023-03-31T06:23:09;7.68;;;3.10;;
19593;SDS011;9944;48.240;16.478;2023-03-31T06:27:12;5.07;;;3.08;;
19593;SDS011;9944;48.240;16.478;2023-03-31T06:31:17;4.70;;;3.17;;
19593;SDS011;9944;48.240;16.478;2023-03-31T06:35:22;6.70;;;3.20;;
19593;SDS011;9944;48.240;16.478;2023-03-31T06:39:25;5.82;;;3.17;;
19593;SDS011;9944;48.240;16.478;2023-03-31T06:43:29;4.75;;;2.90;;
19593;SDS011;9944;48.240;16.478;2023-03-31T06:47:32;9.13;;;3.53;;
19593;SDS011;9944;48.240;16.478;2023-03-31T06:51:36;5.70;;;2.78;;
19593;SDS011;9944;48.240;16.478;2023-03-31T06:55:40;4.53;;;2.45;;
19593;SDS011;9944;48.240;16.478;2023-03-31T06:59:43;7.07;;;2.40;;
19593;SDS011;9944;48.240;16.478;2023-03-31T07:03:46;3.25;;;2.17;;
19593;SDS011;9944;48.240;16.478;2023-03-31T07:07:50;4.47;;;2.58;;
19593;SDS011;9944;48.240;16.478;2023-03-31T07:11:53;4.50;;;2.42;;
19593;SDS011;9944;48.240;16.478;2023-03-31T07:15:57;4.38;;;2.33;;
19593;SDS011;9944;48.240;16.478;2023-03-31T07:20:00;3.42;;;2.05;;
19593;SDS011;9944;48.240;16.478;2023-03-31T07:24:06;3.42;;;1.95;;
19593;SDS011;9944;48.240;16.478;2023-03-31T07:28:09;4.43;;;2.25;;
19593;SDS011;9944;48.240;16.478;2023-03-31T07:32:13;3.00;;;1.45;;
19593;SDS011;9944;48.240;16.478;2023-03-31T07:36:16;3.85;;;1.80;;
19593;SDS011;9944;48.240;16.478;2023-03-31T07:40:22;3.08;;;1.70;;
19593;SDS011;9944;48.240;16.478;2023-03-31T07:44:26;3.63;;;1.60;;
19593;SDS011;9944;48.240;16.478;2023-03-31T07:48:29;3.38;;;1.75;;
19593;SDS011;9944;48.240;16.478;2023-03-31T07:52:33;5.63;;;1.67;;
19593;SDS011;9944;48.240;16.478;2023-03-31T07:56:37;3.35;;;1.60;;
19593;SDS011;9944;48.240;16.478;2023-03-31T08:00:40;2.47;;;1.50;;
19593;SDS011;9944;48.240;16.478;2023-03-31T08:04:43;3.88;;;1.83;;
19593;SDS011;9944;48.240;16.478;2023-03-31T08:08:48;2.20;;;1.40;;
19593;SDS011;9944;48.240;16.478;2023-03-31T08:12:53;2.20;;;1.30;;
19593;SDS011;9944;48.240;16.478;2023-03-31T08:16:56;2.97;;;1.40;;
19593;SDS011;9944;48.240;16.478;2023-03-31T08:21:00;1.23;;;1.13;;
19593;SDS011;9944;48.240;16.478;2023-03-31T08:25:04;2.78;;;1.30;;
19593;SDS011;9944;48.240;16.478;2023-03-31T08:29:09;2.58;;;1.30;;
19593;SDS011;9944;48.240;16.478;2023-03-31T08:33:13;3.15;;;1.15;;
19593;SDS011;9944;48.240;16.478;2023-03-31T08:37:16;2.10;;;1.27;;
19593;SDS011;9944;48.240;16.478;2023-03-31T08:41:25;2.85;;;1.40;;
19593;SDS011;9944;48.240;16.478;2023-03-31T08:45:36;4.03;;;1.42;;
19593;SDS011;9944;48.240;16.478;2023-03-31T08:49:44;2.10;;;1.20;;
19593;SDS011;9944;48.240;16.478;2023-03-31T08:53:51;3.13;;;1.25;;
19593;SDS011;9944;48.240;16.478;2023-03-31T08:58:05;2.25;;;1.33;;
19593;SDS011;9944;48.240;16.478;2023-03-31T09:02:17;2.13;;;1.40;;
19593;SDS011;9944;48.240;16.478;2023-03-31T09:06:32;1.98;;;1.20;;
19593;SDS011;9944;48.240;16.478;2023-03-31T09:10:41;4.55;;;1.10;;
19593;SDS011;9944;48.240;16.478;2023-03-31T09:14:48;4.63;;;1.70;;
19593;SDS011;9944;48.240;16.478;2023-03-31T09:19:01;3.80;;;1.55;;
19593;SDS011;9944;48.240;16.478;2023-03-31T09:23:05;2.70;;;1.50;;
19593;SDS011;9944;48.240;16.478;2023-03-31T09:27:19;5.38;;;1.73;;
19593;SDS011;9944;48.240;16.478;2023-03-31T09:31:23;4.65;;;2.00;;
19593;SDS011;9944;48.240;16.478;2023-03-31T09:35:28;5.28;;;1.95;;
19593;SDS011;9944;48.240;16.478;2023-03-31T09:39:34;3.20;;;1.60;;
19593;SDS011;9944;48.240;16.478;2023-03-31T09:43:38;3.92;;;1.70;;
19593;SDS011;9944;48.240;16.478;2023-03-31T09:47:44;4.38;;;1.85;;
19593;SDS011;9944;48.240;16.478;2023-03-31T09:51:52;3.20;;;1.60;;
19593;SDS011;9944;48.240;16.478;2023-03-31T09:56:04;2.35;;;1.75;;
19593;SDS011;9944;48.240;16.478;2023-03-31T10:00:13;3.70;;;2.28;;
19593;SDS011;9944;48.240;16.478;2023-03-31T10:04:20;2.95;;;1.63;;
19593;SDS011;9944;48.240;16.478;2023-03-31T10:08:28;3.53;;;2.10;;
19593;SDS011;9944;48.240;16.478;2023-03-31T10:12:33;2.33;;;1.75;;
19593;SDS011;9944;48.240;16.478;2023-03-31T10:16:42;2.65;;;1.80;;
19593;SDS011;9944;48.240;16.478;2023-03-31T10:20:49;3.38;;;1.90;;
19593;SDS011;9944;48.240;16.478;2023-03-31T10:24:56;4.10;;;2.17;;
19593;SDS011;9944;48.240;16.478;2023-03-31T10:29:11;2.20;;;1.75;;
19593;SDS011;9944;48.240;16.478;2023-03-31T10:33:17;3.33;;;1.77;;
19593;SDS011;9944;48.240;16.478;2023-03-31T10:37:25;3.10;;;1.95;;
19593;SDS011;9944;48.240;16.478;2023-03-31T10:41:33;2.88;;;1.90;;
19593;SDS011;9944;48.240;16.478;2023-03-31T10:45:37;2.78;;;1.88;;
19593;SDS011;9944;48.240;16.478;2023-03-31T10:49:44;3.00;;;1.58;;
19593;SDS011;9944;48.240;16.478;2023-03-31T10:53:52;2.38;;;1.63;;
19593;SDS011;9944;48.240;16.478;2023-03-31T10:58:00;2.15;;;1.60;;
19593;SDS011;9944;48.240;16.478;2023-03-31T11:02:14;4.00;;;1.70;;
19593;SDS011;9944;48.240;16.478;2023-03-31T11:06:38;4.10;;;1.98;;
19593;SDS011;9944;48.240;16.478;2023-03-31T11:10:58;3.88;;;1.92;;
19593;SDS011;9944;48.240;16.478;2023-03-31T11:15:17;2.90;;;1.63;;
19593;SDS011;9944;48.240;16.478;2023-03-31T11:19:28;2.80;;;1.65;;
19593;SDS011;9944;48.240;16.478;2023-03-31T11:23:42;2.53;;;1.70;;
19593;SDS011;9944;48.240;16.478;2023-03-31T11:27:56;3.35;;;1.70;;
19593;SDS011;9944;48.240;16.478;2023-03-31T11:32:24;2.85;;;2.20;;
19593;SDS011;9944;48.240;16.478;2023-03-31T11:36:45;2.83;;;1.98;;
19593;SDS011;9944;48.240;16.478;2023-03-31T11:41:08;2.80;;;2.00;;
19593;SDS011;9944;48.240;16.478;2023-03-31T11:45:15;2.67;;;1.85;;
19593;SDS011;9944;48.240;16.478;2023-03-31T11:49:23;2.65;;;1.70;;
19593;SDS011;9944;48.240;16.478;2023-03-31T11:53:30;2.65;;;2.00;;
19593;SDS011;9944;48.240;16.478;2023-03-31T11:57:37;3.15;;;1.90;;
19593;SDS011;9944;48.240;16.478;2023-03-31T12:01:46;4.50;;;2.03;;
19593;SDS011;9944;48.240;16.478;2023-03-31T12:05:57;4.05;;;2.20;;
19593;SDS011;9944;48.240;16.478;2023-03-31T12:10:11;4.47;;;2.17;;
19593;SDS011;9944;48.240;16.478;2023-03-31T12:14:22;2.67;;;1.67;;
19593;SDS011;9944;48.240;16.478;2023-03-31T12:18:31;5.05;;;2.10;;
19593;SDS011;9944;48.240;16.478;2023-03-31T12:22:41;2.50;;;2.00;;
19593;SDS011;9944;48.240;16.478;2023-03-31T12:26:49;2.97;;;1.80;;
19593;SDS011;9944;48.240;16.478;2023-03-31T12:31:00;3.22;;;1.80;;
19593;SDS011;9944;48.240;16.478;2023-03-31T12:35:09;4.32;;;1.98;;
19593;SDS011;9944;48.240;16.478;2023-03-31T12:39:23;2.40;;;1.70;;
19593;SDS011;9944;48.240;16.478;2023-03-31T12:52:48;1.90;;;1.50;;
19593;SDS011;9944;48.240;16.478;2023-03-31T12:57:14;1.90;;;1.30;;
19593;SDS011;9944;48.240;16.478;2023-03-31T13:01:23;2.78;;;1.50;;
19593;SDS011;9944;48.240;16.478;2023-03-31T13:05:39;2.67;;;1.60;;
19593;SDS011;9944;48.240;16.478;2023-03-31T13:09:48;1.95;;;1.40;;
19593;SDS011;9944;48.240;16.478;2023-03-31T13:13:58;3.70;;;1.65;;
19593;SDS011;9944;48.240;16.478;2023-03-31T13:18:04;3.45;;;1.95;;
19593;SDS011;9944;48.240;16.478;2023-03-31T13:22:25;2.13;;;1.70;;
19593;SDS011;9944;48.240;16.478;2023-03-31T13:26:35;1.73;;;1.35;;
19593;SDS011;9944;48.240;16.478;2023-03-31T13:30:51;3.38;;;1.80;;
19593;SDS011;9944;48.240;16.478;2023-03-31T13:34:58;1.95;;;1.35;;
19593;SDS011;9944;48.240;16.478;2023-03-31T13:39:10;5.40;;;1.60;;
19593;SDS011;9944;48.240;16.478;2023-03-31T13:43:46;2.30;;;1.52;;
19593;SDS011;9944;48.240;16.478;2023-03-31T13:52:37;1.90;;;1.45;;
19593;SDS011;9944;48.240;16.478;2023-03-31T13:56:51;3.28;;;1.50;;
19593;SDS011;9944;48.240;16.478;2023-03-31T14:01:31;3.03;;;1.42;;
19593;SDS011;9944;48.240;16.478;2023-03-31T14:05:46;3.13;;;1.30;;
19593;SDS011;9944;48.240;16.478;2023-03-31T14:09:58;1.50;;;1.30;;
19593;SDS011;9944;48.240;16.478;2023-03-31T14:14:04;1.70;;;1.20;;
19593;SDS011;9944;48.240;16.478;2023-03-31T14:18:09;1.52;;;1.10;;
19593;SDS011;9944;48.240;16.478;2023-03-31T14:22:18;1.58;;;1.38;;
19593;SDS011;9944;48.240;16.478;2023-03-31T14:26:46;1.92;;;1.30;;
19593;SDS011;9944;48.240;16.478;2023-03-31T14:31:01;2.40;;;1.35;;
19593;SDS011;9944;48.240;16.478;2023-03-31T14:35:25;2.03;;;1.20;;
19593;SDS011;9944;48.240;16.478;2023-03-31T14:39:34;2.08;;;1.60;;
19593;SDS011;9944;48.240;16.478;2023-03-31T14:43:44;1.50;;;1.40;;
19593;SDS011;9944;48.240;16.478;2023-03-31T14:47:52;3.20;;;1.42;;
19593;SDS011;9944;48.240;16.478;2023-03-31T14:51:58;2.03;;;1.73;;
19593;SDS011;9944;48.240;16.478;2023-03-31T14:56:04;3.70;;;2.05;;
19593;SDS011;9944;48.240;16.478;2023-03-31T15:00:12;3.17;;;1.50;;
19593;SDS011;9944;48.240;16.478;2023-03-31T15:04:18;2.63;;;1.73;;
19593;SDS011;9944;48.240;16.478;2023-03-31T15:08:39;2.38;;;1.73;;
19593;SDS011;9944;48.240;16.478;2023-03-31T15:12:43;2.17;;;1.33;;
19593;SDS011;9944;48.240;16.478;2023-03-31T15:16:48;1.88;;;1.48;;
19593;SDS011;9944;48.240;16.478;2023-03-31T15:20:52;2.00;;;1.40;;
19593;SDS011;9944;48.240;16.478;2023-03-31T15:24:55;2.85;;;1.50;;
19593;SDS011;9944;48.240;16.478;2023-03-31T15:29:00;2.60;;;1.38;;
19593;SDS011;9944;48.240;16.478;2023-03-31T15:33:14;1.42;;;1.20;;
19593;SDS011;9944;48.240;16.478;2023-03-31T15:37:22;1.17;;;1.00;;
19593;SDS011;9944;48.240;16.478;2023-03-31T15:41:28;2.25;;;0.70;;
19593;SDS011;9944;48.240;16.478;2023-03-31T15:45:46;1.00;;;0.70;;
19593;SDS011;9944;48.240;16.478;2023-03-31T15:49:53;0.60;;;0.60;;
19593;SDS011;9944;48.240;16.478;2023-03-31T15:53:59;0.73;;;0.73;;
19593;SDS011;9944;48.240;16.478;2023-03-31T15:58:14;0.57;;;0.50;;
19593;SDS011;9944;48.240;16.478;2023-03-31T16:02:18;1.67;;;0.90;;
19593;SDS011;9944;48.240;16.478;2023-03-31T16:06:31;0.93;;;0.70;;
19593;SDS011;9944;48.240;16.478;2023-03-31T16:10:41;1.00;;;0.70;;
19593;SDS011;9944;48.240;16.478;2023-03-31T16:14:45;0.80;;;0.73;;
19593;SDS011;9944;48.240;16.478;2023-03-31T16:18:52;1.52;;;0.68;;
19593;SDS011;9944;48.240;16.478;2023-03-31T16:23:11;1.10;;;0.88;;
19593;SDS011;9944;48.240;16.478;2023-03-31T16:27:17;0.93;;;0.77;;
19593;SDS011;9944;48.240;16.478;2023-03-31T16:31:28;1.63;;;0.98;;
19593;SDS011;9944;48.240;16.478;2023-03-31T16:35:35;0.75;;;0.73;;
19593;SDS011;9944;48.240;16.478;2023-03-31T16:39:41;1.25;;;0.98;;
19593;SDS011;9944;48.240;16.478;2023-03-31T16:43:44;1.35;;;0.80;;
19593;SDS011;9944;48.240;16.478;2023-03-31T16:47:47;1.15;;;0.98;;
19593;SDS011;9944;48.240;16.478;2023-03-31T16:51:52;0.98;;;0.88;;
19593;SDS011;9944;48.240;16.478;2023-03-31T16:55:56;1.10;;;1.00;;
19593;SDS011;9944;48.240;16.478;2023-03-31T16:59:59;1.45;;;1.27;;
19593;SDS011;9944;48.240;16.478;2023-03-31T17:04:03;2.75;;;1.42;;
19593;SDS011;9944;48.240;16.478;2023-03-31T17:08:06;1.10;;;1.00;;
19593;SDS011;9944;48.240;16.478;2023-03-31T17:12:13;1.20;;;0.90;;
19593;SDS011;9944;48.240;16.478;2023-03-31T17:16:16;1.15;;;0.90;;
19593;SDS011;9944;48.240;16.478;2023-03-31T17:20:33;1.42;;;1.27;;
19593;SDS011;9944;48.240;16.478;2023-03-31T17:24:37;1.48;;;0.80;;
19593;SDS011;9944;48.240;16.478;2023-03-31T17:28:42;1.58;;;1.20;;
19593;SDS011;9944;48.240;16.478;2023-03-31T17:32:45;2.28;;;1.10;;
19593;SDS011;9944;48.240;16.478;2023-03-31T17:36:50;1.02;;;0.80;;
19593;SDS011;9944;48.240;16.478;2023-03-31T17:41:01;2.47;;;0.95;;
19593;SDS011;9944;48.240;16.478;2023-03-31T17:45:06;1.10;;;0.82;;
19593;SDS011;9944;48.240;16.478;2023-03-31T17:49:11;1.10;;;0.95;;
19593;SDS011;9944;48.240;16.478;2023-03-31T17:53:14;1.10;;;1.00;;
19593;SDS011;9944;48.240;16.478;2023-03-31T17:57:17;1.85;;;1.02;;
19593;SDS011;9944;48.240;16.478;2023-03-31T18:01:21;1.27;;;0.80;;
19593;SDS011;9944;48.240;16.478;2023-03-31T18:05:25;1.25;;;0.90;;
19593;SDS011;9944;48.240;16.478;2023-03-31T18:09:28;2.03;;;1.30;;
19593;SDS011;9944;48.240;16.478;2023-03-31T18:13:32;1.25;;;0.98;;
19593;SDS011;9944;48.240;16.478;2023-03-31T18:17:39;1.85;;;0.95;;
19593;SDS011;9944;48.240;16.478;2023-03-31T18:21:43;2.28;;;1.20;;
19593;SDS011;9944;48.240;16.478;2023-03-31T18:25:47;2.20;;;1.35;;
19593;SDS011;9944;48.240;16.478;2023-03-31T18:29:50;1.38;;;1.05;;
19593;SDS011;9944;48.240;16.478;2023-03-31T18:33:54;2.83;;;1.20;;
19593;SDS011;9944;48.240;16.478;2023-03-31T18:37:58;0.95;;;0.85;;
19593;SDS011;9944;48.240;16.478;2023-03-31T18:42:01;1.27;;;0.90;;
19593;SDS011;9944;48.240;16.478;2023-03-31T18:46:04;2.38;;;0.82;;
19593;SDS011;9944;48.240;16.478;2023-03-31T18:50:09;2.40;;;1.13;;
19593;SDS011;9944;48.240;16.478;2023-03-31T18:54:14;2.13;;;1.05;;
19593;SDS011;9944;48.240;16.478;2023-03-31T18:58:17;1.48;;;1.05;;
19593;SDS011;9944;48.240;16.478;2023-03-31T19:02:20;2.00;;;0.85;;
19593;SDS011;9944;48.240;16.478;2023-03-31T19:06:25;1.73;;;0.95;;
19593;SDS011;9944;48.240;16.478;2023-03-31T19:10:28;1.13;;;1.00;;
19593;SDS011;9944;48.240;16.478;2023-03-31T19:14:32;1.23;;;1.02;;
19593;SDS011;9944;48.240;16.478;2023-03-31T19:18:36;2.33;;;0.93;;
19593;SDS011;9944;48.240;16.478;2023-03-31T19:22:41;2.00;;;1.15;;
19593;SDS011;9944;48.240;16.478;2023-03-31T19:26:45;2.80;;;1.10;;
19593;SDS011;9944;48.240;16.478;2023-03-31T19:30:48;4.63;;;1.02;;
19593;SDS011;9944;48.240;16.478;2023-03-31T19:34:52;1.60;;;0.93;;
19593;SDS011;9944;48.240;16.478;2023-03-31T19:38:57;1.13;;;1.02;;
19593;SDS011;9944;48.240;16.478;2023-03-31T19:43:01;1.30;;;0.98;;
19593;SDS011;9944;48.240;16.478;2023-03-31T19:47:04;1.63;;;1.30;;
19593;SDS011;9944;48.240;16.478;2023-03-31T19:51:08;1.45;;;0.93;;
19593;SDS011;9944;48.240;16.478;2023-03-31T19:55:13;0.80;;;0.75;;
19593;SDS011;9944;48.240;16.478;2023-03-31T19:59:16;1.02;;;0.93;;
19593;SDS011;9944;48.240;16.478;2023-03-31T20:03:19;1.90;;;1.00;;
19593;SDS011;9944;48.240;16.478;2023-03-31T20:07:24;1.10;;;1.00;;
19593;SDS011;9944;48.240;16.478;2023-03-31T20:11:28;3.50;;;1.10;;
19593;SDS011;9944;48.240;16.478;2023-03-31T20:15:32;1.00;;;0.80;;
19593;SDS011;9944;48.240;16.478;2023-03-31T20:19:35;1.33;;;0.90;;
19593;SDS011;9944;48.240;16.478;2023-03-31T20:23:39;1.17;;;0.93;;
19593;SDS011;9944;48.240;16.478;2023-03-31T20:27:45;0.90;;;0.70;;
19593;SDS011;9944;48.240;16.478;2023-03-31T20:31:48;2.42;;;1.00;;
19593;SDS011;9944;48.240;16.478;2023-03-31T20:35:59;1.83;;;1.10;;
19593;SDS011;9944;48.240;16.478;2023-03-31T20:40:03;1.70;;;0.80;;
19593;SDS011;9944;48.240;16.478;2023-03-31T20:44:07;2.03;;;1.13;;
19593;SDS011;9944;48.240;16.478;2023-03-31T20:48:16;1.40;;;0.85;;
19593;SDS011;9944;48.240;16.478;2023-03-31T20:52:19;1.33;;;1.00;;
19593;SDS011;9944;48.240;16.478;2023-03-31T20:56:24;1.55;;;0.85;;
19593;SDS011;9944;48.240;16.478;2023-03-31T21:00:30;1.08;;;0.80;;
19593;SDS011;9944;48.240;16.478;2023-03-31T21:04:33;0.85;;;0.80;;
19593;SDS011;9944;48.240;16.478;2023-03-31T21:08:36;1.00;;;0.90;;
19593;SDS011;9944;48.240;16.478;2023-03-31T21:12:39;0.85;;;0.80;;
19593;SDS011;9944;48.240;16.478;2023-03-31T21:16:48;0.82;;;0.70;;
19593;SDS011;9944;48.240;16.478;2023-03-31T21:20:51;1.92;;;0.90;;
19593;SDS011;9944;48.240;16.478;2023-03-31T21:24:56;0.90;;;0.80;;
19593;SDS011;9944;48.240;16.478;2023-03-31T21:28:59;1.00;;;0.90;;
19593;SDS011;9944;48.240;16.478;2023-03-31T21:33:03;1.20;;;0.80;;
19593;SDS011;9944;48.240;16.478;2023-03-31T21:37:06;1.25;;;0.70;;
19593;SDS011;9944;48.240;16.478;2023-03-31T21:41:11;1.50;;;0.90;;
19593;SDS011;9944;48.240;16.478;2023-03-31T21:45:15;1.77;;;0.90;;
19593;SDS011;9944;48.240;16.478;2023-03-31T21:49:20;1.67;;;0.77;;
19593;SDS011;9944;48.240;16.478;2023-03-31T21:53:24;0.95;;;0.70;;
19593;SDS011;9944;48.240;16.478;2023-03-31T21:57:27;0.93;;;0.80;;
19593;SDS011;9944;48.240;16.478;2023-03-31T22:01:30;0.80;;;0.60;;
19593;SDS011;9944;48.240;16.478;2023-03-31T22:05:35;0.85;;;0.63;;
19593;SDS011;9944;48.240;16.478;2023-03-31T22:09:38;1.52;;;0.63;;
19593;SDS011;9944;48.240;16.478;2023-03-31T22:13:42;1.60;;;0.68;;
19593;SDS011;9944;48.240;16.478;2023-03-31T22:17:46;1.08;;;0.70;;
19593;SDS011;9944;48.240;16.478;2023-03-31T22:21:51;1.58;;;0.82;;
19593;SDS011;9944;48.240;16.478;2023-03-31T22:25:54;0.70;;;0.70;;
19593;SDS011;9944;48.240;16.478;2023-03-31T22:29:58;1.08;;;0.70;;
19593;SDS011;9944;48.240;16.478;2023-03-31T22:34:01;1.25;;;0.88;;
19593;SDS011;9944;48.240;16.478;2023-03-31T22:38:05;0.90;;;0.77;;
19593;SDS011;9944;48.240;16.478;2023-03-31T22:42:09;1.75;;;0.77;;
19593;SDS011;9944;48.240;16.478;2023-03-31T22:46:12;0.80;;;0.80;;
19593;SDS011;9944;48.240;16.478;2023-03-31T22:50:16;0.82;;;0.50;;
19593;SDS011;9944;48.240;16.478;2023-03-31T22:54:21;0.85;;;0.60;;
19593;SDS011;9944;48.240;16.478;2023-03-31T22:58:24;0.75;;;0.60;;
19593;SDS011;9944;48.240;16.478;2023-03-31T23:02:27;0.85;;;0.55;;
19593;SDS011;9944;48.240;16.478;2023-03-31T23:06:30;1.50;;;0.40;;
19593;SDS011;9944;48.240;16.478;2023-03-31T23:10:37;0.65;;;0.60;;
19593;SDS011;9944;48.240;16.478;2023-03-31T23:14:40;1.05;;;0.75;;
19593;SDS011;9944;48.240;16.478;2023-03-31T23:18:44;0.60;;;0.57;;
19593;SDS011;9944;48.240;16.478;2023-03-31T23:22:48;0.57;;;0.50;;
19593;SDS011;9944;48.240;16.478;2023-03-31T23:26:55;1.23;;;0.65;;
19593;SDS011;9944;48.240;16.478;2023-03-31T23:30:58;0.60;;;0.60;;
19593;SDS011;9944;48.240;16.478;2023-03-31T23:35:02;0.95;;;0.50;;
19593;SDS011;9944;48.240;16.478;2023-03-31T23:39:05;0.60;;;0.50;;
19593;SDS011;9944;48.240;16.478;2023-03-31T23:43:10;0.60;;;0.50;;
19593;SDS011;9944;48.240;16.478;2023-03-31T23:47:13;1.15;;;0.70;;
19593;SDS011;9944;48.240;16.478;2023-03-31T23:51:16;0.77;;;0.63;;
19593;SDS011;9944;48.240;16.478;2023-03-31T23:55:19;0.63;;;0.50;;
19593;SDS011;9944;48.240;16.478;2023-03-31T23:59:24;0.50;;;0.45;;
